Berezino, Belarus

9:55 PM FET on September 30, 2014 (GMT +0300)
Minsk-2 | Change Station
CLOSE
Current Station
Airport
Location: Minsk In-Min,
Elevation: 669 ft
Nearby Weather Stations

Elev 669 ft 53.88 °N, 28.03 °E | Updated 25 minutes ago

Mostly Cloudy
Mostly Cloudy
43 °F
Feels Like 43 °F
N
0
Wind Variable Wind from North

Today
High -- | Low -- °F
--% Chance of Precip.
Yesterday
High -- | Low -- °F
Precip. -- in
7:03 AM 6:43 PM
Waxing Crescent, 39% visible
Pressure 30.21 in
Visibility 6.2 miles
Clouds Scattered Clouds 4400 ft
Mostly Cloudy 20000 ft
Dew Point 39 °F
Humidity 87%
Rainfall 0.00 in
Snow Depth Not available.
UV 0 out of 12
Pollen Not available.
Air Quality Not available.
Flu Activity Not available.
METAR UMMS 301830Z 00000MPS 9999 SCT044 BKN200 06/04 Q1023 R31/CLRD// NOSIG

More Conditions Fewer Conditions

Pressure 30.21 in
Visibility 6.2 miles
Clouds Scattered Clouds 4400 ft
Mostly Cloudy 20000 ft
Dew Point 39 °F
Humidity 87%
Rainfall 0.00 in
Snow Depth Not available.
UV 0 out of 12
Pollen Not available.
Air Quality Not available.
Flu Activity Not available.
METAR UMMS 301830Z 00000MPS 9999 SCT044 BKN200 06/04 Q1023 R31/CLRD// NOSIG

More Conditions Fewer Conditions

10-Day Weather Forecast

Almanac

Astronomy

Sep. 30, 2014 Rise Set
Actual Time 7:03 AM FET 6:43 PM FET
Civil Twilight 6:28 AM FET 7:18 PM FET
Nautical Twilight 5:47 AM FET 7:59 PM FET
Astronomical Twilight 5:04 AM FET 8:41 PM FET
Moon 1:34 PM FET 10:13 PM FET
Length of Visible Light 12h 50m
Length of Day
11h 39m
Tomorrow will be 4m 15s shorter.
Waxing Crescent, 39% of the Moon is Illuminated
Today
Waxing Crescent
Oct 1
First Quarter
Oct 8
Full
Oct 15
Last Quarter
Oct 23
New

Today's Extremes

Country Highs Country Lows

Community

WunderPhotos

Upload Photos

1,757,712 photos uploaded!

Nearby

Snow Depth

Not available.

Earthquake Activity

City Distance Mag. Time & Date
No recent earthquake activity has been reported nearby.
Minimum magnitude displayed is 2.5.

Coastal Water Temperatures

Place Temperature
No Stations Reporting

Nearby Weather Stations